createdAt,value
2022-08-14T00:01:02.919Z,56.03
2022-08-14T00:03:37.788Z,56.78
2022-08-14T00:06:13.863Z,57.17
2022-08-14T00:08:51.415Z,57.32
2022-08-14T00:11:18.905Z,57.77
2022-08-14T00:13:52.824Z,58.31
2022-08-14T00:16:41.380Z,58.33
2022-08-14T00:19:19.121Z,58.66
2022-08-14T00:21:50.345Z,60.16
2022-08-14T00:24:28.402Z,59.86
2022-08-14T00:26:57.705Z,59.54
2022-08-14T00:29:30.701Z,60.18
2022-08-14T00:31:59.159Z,60.50
2022-08-14T00:34:37.688Z,60.51
2022-08-14T00:37:11.250Z,59.85
2022-08-14T00:39:38.839Z,59.60
2022-08-14T00:42:06.984Z,60.47
2022-08-14T00:44:48.057Z,60.06
2022-08-14T00:47:15.435Z,60.31
2022-08-14T00:49:43.119Z,59.94
2022-08-14T00:52:18.294Z,60.35
2022-08-14T00:54:46.552Z,60.94
2022-08-14T00:57:13.063Z,61.12
2022-08-14T00:59:40.580Z,61.11
2022-08-14T01:02:09.213Z,61.19
2022-08-14T01:04:51.417Z,62.04
2022-08-14T01:07:22.301Z,62.03
2022-08-14T01:09:57.953Z,60.77
2022-08-14T01:12:26.979Z,61.67
2022-08-14T01:14:59.928Z,62.79
2022-08-14T01:17:50.776Z,63.89
2022-08-14T01:20:39.640Z,64.09
2022-08-14T01:23:16.396Z,63.60
2022-08-14T01:25:47.545Z,63.65
2022-08-14T01:28:34.349Z,64.56
2022-08-14T01:31:00.542Z,64.20
2022-08-14T01:33:29.293Z,64.24
2022-08-14T01:36:04.579Z,65.64
2022-08-14T01:38:37.127Z,64.50
2022-08-14T01:41:14.824Z,65.11
2022-08-14T01:43:56.296Z,65.67
2022-08-14T01:46:24.843Z,64.33
2022-08-14T01:48:51.700Z,64.36
2022-08-14T01:51:22.185Z,64.08
2022-08-14T01:53:54.881Z,64.67
2022-08-14T01:56:32.673Z,65.71
2022-08-14T01:59:19.898Z,66.30
2022-08-14T02:01:59.111Z,66.35
2022-08-14T02:04:54.448Z,67.20
2022-08-14T02:07:34.554Z,67.44
2022-08-14T02:10:07.274Z,68.91
2022-08-14T02:12:33.372Z,67.13
2022-08-14T02:15:01.697Z,68.09
2022-08-14T02:17:28.867Z,68.15
2022-08-14T02:19:56.615Z,68.48
2022-08-14T02:22:28.662Z,69.03
2022-08-14T02:24:58.949Z,69.49
2022-08-14T02:28:25.655Z,70.00
2022-08-14T02:30:11.564Z,70.19
2022-08-14T02:32:39.755Z,69.06
2022-08-14T02:35:14.941Z,69.55
2022-08-14T02:37:48.228Z,69.59
2022-08-14T02:40:17.596Z,68.48
2022-08-14T02:42:55.203Z,68.79
2022-08-14T02:45:25.508Z,68.67
2022-08-14T02:48:10.375Z,68.15
2022-08-14T02:50:53.630Z,70.58
2022-08-14T02:53:19.609Z,70.81
2022-08-14T02:55:46.274Z,70.91
2022-08-14T02:58:12.503Z,71.45
2022-08-14T03:00:57.452Z,72.42
2022-08-14T03:03:24.067Z,72.17
2022-08-14T03:05:51.809Z,72.22
2022-08-14T03:08:20.957Z,73.03
2022-08-14T03:10:48.686Z,71.79
2022-08-14T03:13:20.975Z,72.76
2022-08-14T03:15:56.002Z,72.90
2022-08-14T03:18:31.865Z,73.38
2022-08-14T03:21:10.486Z,72.93
2022-08-14T03:23:37.976Z,72.89
2022-08-14T03:26:07.701Z,73.54
2022-08-14T03:28:33.777Z,72.53
2022-08-14T03:31:00.933Z,72.61
2022-08-14T03:33:28.298Z,72.58
2022-08-14T03:37:29.695Z,72.22
2022-08-14T03:39:15.820Z,72.24
2022-08-14T03:41:41.291Z,71.92
2022-08-14T03:45:25.748Z,72.14
2022-08-14T03:46:56.085Z,72.58
2022-08-14T03:49:24.334Z,72.77
2022-08-14T03:51:54.852Z,72.86
2022-08-14T03:54:20.804Z,73.96
2022-08-14T03:56:46.890Z,74.24
2022-08-14T03:59:17.661Z,75.69
2022-08-14T04:01:57.954Z,75.02
2022-08-14T04:04:29.185Z,75.08
2022-08-14T04:06:59.006Z,75.92
2022-08-14T04:09:26.683Z,75.78
2022-08-14T04:11:53.489Z,75.80
2022-08-14T04:14:19.561Z,76.26
2022-08-14T04:16:47.341Z,76.69
2022-08-14T04:19:16.648Z,76.52
2022-08-14T04:22:01.867Z,77.43
2022-08-14T04:24:28.597Z,77.75
2022-08-14T04:26:55.670Z,77.75
2022-08-14T04:29:21.516Z,77.38
2022-08-14T04:33:10.489Z,77.21
2022-08-14T04:34:34.455Z,77.34
2022-08-14T04:37:24.962Z,76.75
2022-08-14T04:40:11.958Z,76.28
2022-08-14T04:42:56.581Z,77.34
2022-08-14T04:45:23.725Z,76.98
2022-08-14T04:48:10.144Z,76.53
2022-08-14T04:50:44.058Z,77.21
2022-08-14T04:53:14.898Z,76.50
2022-08-14T04:55:44.299Z,76.63
2022-08-14T04:58:21.662Z,76.09
2022-08-14T05:00:58.697Z,76.71
2022-08-14T05:03:27.772Z,76.50
2022-08-14T05:05:57.895Z,75.98
2022-08-14T05:08:32.414Z,75.12
2022-08-14T05:11:11.974Z,74.67
2022-08-14T05:14:17.198Z,75.37
2022-08-14T05:16:28.556Z,75.43
2022-08-14T05:19:19.020Z,75.47
2022-08-14T05:22:00.376Z,74.84
2022-08-14T05:24:27.677Z,74.57
2022-08-14T05:26:53.749Z,74.48
2022-08-14T05:29:19.891Z,73.94
2022-08-14T05:31:45.829Z,73.39
2022-08-14T05:34:11.809Z,72.91
2022-08-14T05:36:37.816Z,71.71
2022-08-14T05:39:05.735Z,71.28
2022-08-14T05:41:53.577Z,71.57
2022-08-14T05:44:20.197Z,71.46
2022-08-14T05:46:46.031Z,71.66
2022-08-14T05:49:13.608Z,71.44
2022-08-14T05:51:40.462Z,71.21
2022-08-14T05:54:12.689Z,71.78
2022-08-14T05:56:39.952Z,71.22
2022-08-14T05:59:05.898Z,70.59
2022-08-14T06:01:33.684Z,70.76
2022-08-14T06:03:59.821Z,69.97
2022-08-14T06:06:26.192Z,70.04
2022-08-14T06:08:52.116Z,70.23
2022-08-14T06:11:23.934Z,69.85
2022-08-14T06:13:56.740Z,69.28
2022-08-14T06:16:22.731Z,68.98
2022-08-14T06:18:52.323Z,69.08
2022-08-14T06:21:20.535Z,70.15
2022-08-14T06:23:48.979Z,69.37
2022-08-14T06:26:15.063Z,69.21
2022-08-14T06:28:45.573Z,69.90
2022-08-14T06:31:11.601Z,68.81
2022-08-14T06:35:01.478Z,69.51
2022-08-14T06:36:23.999Z,69.01
2022-08-14T06:38:53.514Z,68.83
2022-08-14T06:41:20.715Z,68.87
2022-08-14T06:43:57.516Z,68.72
2022-08-14T06:46:34.244Z,67.64
2022-08-14T06:49:02.840Z,67.59
2022-08-14T06:51:38.518Z,67.34
2022-08-14T06:54:10.227Z,67.18
2022-08-14T06:56:36.130Z,66.82
2022-08-14T06:59:05.383Z,66.10
2022-08-14T07:01:50.822Z,66.09
2022-08-14T07:04:40.936Z,66.32
2022-08-14T07:07:06.820Z,66.45
2022-08-14T07:09:44.276Z,65.63
2022-08-14T07:12:54.088Z,64.83
2022-08-14T07:15:05.109Z,64.82
2022-08-14T07:17:32.149Z,64.29
2022-08-14T07:20:00.297Z,63.75
2022-08-14T07:22:33.099Z,64.50
2022-08-14T07:25:12.821Z,64.31
2022-08-14T07:27:40.764Z,64.32
2022-08-14T07:30:09.691Z,63.69
2022-08-14T07:32:55.542Z,63.66
2022-08-14T07:35:21.427Z,63.65
2022-08-14T07:37:49.510Z,63.84
2022-08-14T07:40:22.196Z,63.92
2022-08-14T07:42:53.796Z,63.77
2022-08-14T07:45:19.782Z,63.84
2022-08-14T07:47:48.487Z,63.60
2022-08-14T07:50:20.059Z,63.17
2022-08-14T07:52:47.568Z,62.96
2022-08-14T07:55:14.781Z,62.90
2022-08-14T07:57:47.647Z,63.34
2022-08-14T08:00:30.191Z,63.42
2022-08-14T08:03:00.269Z,62.70
2022-08-14T08:05:27.220Z,62.24
2022-08-14T08:07:53.917Z,61.75
2022-08-14T08:10:46.060Z,60.42
2022-08-14T08:13:16.735Z,60.07
2022-08-14T08:15:48.376Z,59.88
2022-08-14T08:18:20.533Z,60.18
2022-08-14T08:20:56.172Z,59.98
2022-08-14T08:23:40.054Z,58.14
2022-08-14T08:26:09.389Z,56.31
2022-08-14T08:28:35.458Z,55.52
2022-08-14T08:31:06.061Z,54.95
2022-08-14T08:33:37.611Z,56.11
2022-08-14T08:36:12.785Z,54.63
2022-08-14T08:39:17.791Z,53.61
2022-08-14T08:41:25.675Z,52.91
2022-08-14T08:43:53.236Z,53.92
2022-08-14T08:46:21.334Z,53.01
2022-08-14T08:51:33.419Z,53.80
2022-08-14T08:54:18.348Z,54.40
2022-08-14T08:56:49.525Z,52.88
2022-08-14T08:59:31.267Z,53.01
2022-08-14T09:02:10.177Z,52.75
2022-08-14T09:04:52.862Z,52.25
2022-08-14T09:07:25.092Z,52.21
2022-08-14T09:09:59.060Z,52.44
2022-08-14T09:12:31.494Z,53.69
2022-08-14T09:15:08.948Z,52.69
2022-08-14T09:17:38.866Z,52.69
2022-08-14T09:20:07.835Z,52.02
2022-08-14T09:22:44.957Z,51.51
2022-08-14T09:25:15.514Z,51.16
2022-08-14T09:27:41.518Z,50.46
2022-08-14T09:30:12.910Z,49.31
2022-08-14T09:33:06.033Z,50.17
2022-08-14T09:35:56.551Z,49.79
2022-08-14T09:38:46.820Z,46.51
2022-08-14T09:42:17.684Z,45.20
2022-08-14T09:44:38.355Z,45.33
2022-08-14T09:47:04.420Z,43.04
2022-08-14T09:49:34.301Z,44.48
2022-08-14T09:52:32.589Z,44.29
2022-08-14T09:54:59.497Z,43.61
2022-08-14T09:57:30.483Z,43.22
2022-08-14T09:59:57.641Z,43.22
2022-08-14T10:02:30.374Z,43.63
2022-08-14T10:05:10.714Z,43.03
2022-08-14T10:07:50.305Z,41.07
2022-08-14T10:10:38.043Z,42.02
2022-08-14T10:13:07.437Z,40.99
2022-08-14T10:15:45.191Z,39.53
2022-08-14T10:18:18.270Z,39.13
2022-08-14T10:20:56.856Z,39.54
2022-08-14T10:23:26.179Z,40.84
2022-08-14T10:26:22.830Z,39.73
2022-08-14T10:29:18.873Z,39.06
2022-08-14T10:31:45.044Z,39.45
2022-08-14T10:34:14.102Z,37.92
2022-08-14T10:36:50.219Z,37.80
2022-08-14T10:47:41.210Z,39.25
2022-08-14T10:50:00.529Z,40.56
2022-08-14T10:52:31.105Z,41.24
2022-08-14T10:55:08.842Z,38.93
2022-08-14T10:57:56.801Z,37.43
2022-08-14T11:00:29.813Z,37.47
2022-08-14T11:03:08.806Z,35.81
2022-08-14T11:05:48.710Z,36.33
2022-08-14T11:08:31.400Z,37.24
2022-08-14T11:11:00.842Z,36.04
2022-08-14T11:13:30.036Z,35.14
2022-08-14T11:16:01.373Z,36.14
2022-08-14T11:18:32.252Z,37.99
2022-08-14T11:21:06.169Z,38.39
2022-08-14T11:23:39.789Z,36.26
2022-08-14T11:26:08.164Z,34.27
2022-08-14T11:28:48.062Z,33.19
2022-08-14T11:31:19.109Z,33.70
2022-08-14T11:33:57.203Z,33.97
2022-08-14T11:36:35.340Z,34.66
2022-08-14T11:39:22.862Z,33.88
2022-08-14T11:41:59.660Z,33.03
2022-08-14T11:44:45.624Z,33.07
2022-08-14T11:47:18.797Z,33.80
2022-08-14T11:49:48.971Z,35.02
2022-08-14T11:52:18.637Z,34.63
2022-08-14T11:54:46.176Z,34.69
2022-08-14T11:57:18.774Z,35.61
2022-08-14T11:59:45.319Z,36.48
2022-08-14T12:03:00.706Z,37.56
2022-08-14T12:05:04.067Z,37.66
2022-08-14T12:07:30.655Z,37.55
2022-08-14T12:09:58.639Z,36.50
2022-08-14T12:12:35.772Z,35.69
2022-08-14T12:15:04.743Z,35.11
2022-08-14T12:17:47.460Z,34.54
2022-08-14T12:20:15.787Z,33.87
2022-08-14T12:22:56.660Z,33.63
2022-08-14T12:25:24.991Z,32.90
2022-08-14T12:27:54.540Z,32.11
2022-08-14T12:30:43.259Z,30.84
2022-08-14T12:33:25.615Z,30.24
2022-08-14T12:35:56.429Z,30.04
2022-08-14T12:38:40.858Z,31.42
2022-08-14T12:41:20.454Z,32.19
2022-08-14T12:43:56.650Z,32.31
2022-08-14T12:46:46.699Z,30.87
2022-08-14T12:49:17.982Z,30.97
2022-08-14T12:51:56.097Z,28.73
2022-08-14T12:54:28.141Z,29.29
2022-08-14T12:57:19.323Z,29.05
2022-08-14T12:59:46.895Z,28.67
2022-08-14T13:02:26.028Z,29.47
2022-08-14T13:04:54.840Z,29.29
2022-08-14T13:07:21.148Z,29.26
2022-08-14T13:09:53.614Z,28.49
2022-08-14T13:12:32.632Z,28.28
2022-08-14T13:15:02.335Z,28.94
2022-08-14T13:17:51.417Z,29.36
2022-08-14T13:20:23.518Z,29.08
2022-08-14T13:22:54.226Z,29.21
2022-08-14T13:25:24.520Z,28.62
2022-08-14T13:27:54.570Z,28.50
2022-08-14T13:30:24.330Z,28.88
2022-08-14T13:32:54.650Z,28.36
2022-08-14T13:35:24.556Z,29.85
2022-08-14T13:37:52.208Z,30.78
2022-08-14T13:40:22.034Z,30.62
2022-08-14T13:42:54.552Z,31.17
2022-08-14T13:45:22.487Z,31.01
2022-08-14T13:47:49.424Z,31.70
2022-08-14T13:50:20.705Z,32.22
2022-08-14T13:52:54.810Z,32.29
2022-08-14T13:55:24.136Z,32.72
2022-08-14T13:58:02.907Z,33.58
2022-08-14T14:00:51.572Z,33.98
2022-08-14T14:03:21.749Z,33.90
2022-08-14T14:05:54.401Z,33.86
2022-08-14T14:08:45.775Z,33.96
2022-08-14T14:11:09.186Z,33.69
2022-08-14T14:13:36.270Z,33.28
2022-08-14T14:16:03.970Z,33.07
2022-08-14T14:18:34.708Z,33.47
2022-08-14T14:21:02.788Z,33.75
2022-08-14T14:23:30.422Z,33.13
2022-08-14T14:25:59.002Z,32.06
2022-08-14T14:28:33.394Z,32.01
2022-08-14T14:31:06.706Z,32.16
2022-08-14T14:33:50.115Z,32.51
2022-08-14T14:36:24.260Z,33.35
2022-08-14T14:38:55.997Z,33.09
2022-08-14T14:41:24.091Z,33.33
2022-08-14T14:43:51.582Z,33.57
2022-08-14T14:46:19.691Z,32.31
2022-08-14T14:48:46.587Z,31.82
2022-08-14T14:51:20.945Z,32.41
2022-08-14T14:53:47.023Z,31.92
2022-08-14T14:56:50.220Z,30.64
2022-08-14T14:58:59.460Z,30.84
2022-08-14T15:01:26.842Z,31.55
2022-08-14T15:03:53.913Z,31.71
2022-08-14T15:06:21.946Z,32.16
2022-08-14T15:08:59.819Z,32.59
2022-08-14T15:11:26.605Z,32.99
2022-08-14T15:13:56.874Z,32.82
2022-08-14T15:16:22.936Z,33.01
2022-08-14T15:18:50.812Z,33.12
2022-08-14T15:21:19.285Z,32.68
2022-08-14T15:23:47.298Z,32.49
2022-08-14T15:26:24.056Z,32.49
2022-08-14T15:29:03.183Z,31.98
2022-08-14T15:31:31.933Z,32.66
2022-08-14T15:34:45.605Z,32.73
2022-08-14T15:37:01.441Z,32.69
2022-08-14T15:39:29.523Z,31.52
2022-08-14T15:42:01.174Z,30.83
2022-08-14T15:44:33.988Z,30.71
2022-08-14T15:47:06.152Z,30.64
2022-08-14T15:49:34.833Z,30.52
2022-08-14T15:52:03.992Z,29.92
2022-08-14T15:54:31.219Z,30.33
2022-08-14T15:57:08.574Z,30.28
2022-08-14T15:59:54.445Z,29.46
2022-08-14T16:02:24.462Z,29.13
2022-08-14T16:04:53.699Z,28.95
2022-08-14T16:07:22.042Z,29.82
2022-08-14T16:10:11.897Z,29.61
2022-08-14T16:12:41.868Z,29.77
2022-08-14T16:15:12.695Z,30.24
2022-08-14T16:17:44.119Z,30.45
2022-08-14T16:20:11.761Z,30.61
2022-08-14T16:22:57.705Z,30.32
2022-08-14T16:25:34.594Z,30.50
2022-08-14T16:28:02.773Z,29.83
2022-08-14T16:30:33.545Z,29.87
2022-08-14T16:33:04.019Z,29.99
2022-08-14T16:35:42.801Z,30.47
2022-08-14T16:38:46.062Z,30.73
2022-08-14T16:41:22.263Z,31.01
2022-08-14T16:43:52.379Z,30.73
2022-08-14T16:46:22.086Z,30.38
2022-08-14T16:48:54.972Z,29.72
2022-08-14T16:51:23.824Z,30.30
2022-08-14T16:53:49.768Z,30.51
2022-08-14T16:56:25.383Z,31.02
2022-08-14T16:59:15.290Z,31.08
2022-08-14T17:01:58.499Z,30.99
2022-08-14T17:04:29.659Z,30.87
2022-08-14T17:06:58.432Z,30.86
2022-08-14T17:09:32.317Z,30.04
2022-08-14T17:12:00.112Z,30.07
2022-08-14T17:15:19.830Z,30.46
2022-08-14T17:17:49.872Z,30.38
2022-08-14T17:20:53.294Z,30.71
2022-08-14T17:23:10.761Z,30.73
2022-08-14T17:25:37.799Z,31.70
2022-08-14T17:28:52.274Z,31.91
2022-08-14T17:31:02.724Z,32.65
2022-08-14T17:36:22.746Z,32.99
2022-08-14T17:39:11.951Z,33.00
2022-08-14T17:42:02.969Z,32.78
2022-08-14T17:44:34.144Z,33.31
2022-08-14T17:47:13.000Z,33.55
2022-08-14T17:49:52.183Z,33.74
2022-08-14T17:52:34.433Z,33.75
2022-08-14T17:55:05.228Z,33.67
2022-08-14T17:57:35.534Z,34.26
2022-08-14T18:00:13.038Z,34.61
2022-08-14T18:02:50.402Z,34.35
2022-08-14T18:05:17.538Z,35.32
2022-08-14T18:08:33.227Z,35.75
2022-08-14T18:10:54.968Z,36.13
2022-08-14T18:13:52.082Z,36.51
2022-08-14T18:16:19.758Z,36.90
2022-08-14T18:18:48.204Z,37.26
2022-08-14T18:21:39.924Z,37.79
2022-08-14T18:24:00.595Z,38.30
2022-08-14T18:26:36.826Z,38.00
2022-08-14T18:29:15.050Z,38.75
2022-08-14T18:31:43.510Z,38.48
2022-08-14T18:34:13.764Z,38.95
2022-08-14T18:37:09.469Z,38.97
2022-08-14T18:40:03.611Z,39.34
2022-08-14T18:42:33.204Z,39.99
2022-08-14T18:45:01.308Z,39.91
2022-08-14T18:47:28.798Z,40.02
2022-08-14T18:50:26.819Z,40.15
2022-08-14T18:52:53.140Z,40.14
2022-08-14T18:55:20.844Z,40.16
2022-08-14T18:58:24.504Z,40.79
2022-08-14T19:00:54.344Z,40.66
2022-08-14T19:03:36.534Z,40.44
2022-08-14T19:06:05.551Z,40.78
2022-08-14T19:08:39.772Z,41.09
2022-08-14T19:11:39.097Z,41.41
2022-08-14T19:14:07.200Z,41.27
2022-08-14T19:16:36.116Z,41.47
2022-08-14T19:19:06.081Z,41.81
2022-08-14T19:21:42.884Z,42.25
2022-08-14T19:24:29.184Z,41.99
2022-08-14T19:27:23.665Z,42.40
2022-08-14T19:29:51.698Z,41.99
2022-08-14T19:32:38.389Z,42.55
2022-08-14T19:35:14.974Z,42.49
2022-08-14T19:37:46.739Z,42.50
2022-08-14T19:40:39.211Z,42.15
2022-08-14T19:43:08.959Z,42.15
2022-08-14T19:45:37.195Z,42.73
2022-08-14T19:48:11.684Z,42.96
2022-08-14T19:50:41.236Z,43.06
2022-08-14T19:53:17.510Z,42.68
2022-08-14T19:55:56.691Z,43.35
2022-08-14T19:58:30.012Z,43.21
2022-08-14T20:00:56.377Z,43.46
2022-08-14T20:03:24.606Z,43.88
2022-08-14T20:06:02.469Z,43.61
2022-08-14T20:11:00.995Z,43.85
2022-08-14T20:11:43.412Z,43.53
2022-08-14T20:14:20.867Z,43.43
2022-08-14T20:16:54.743Z,43.23
2022-08-14T20:19:28.839Z,43.09
2022-08-14T20:22:34.644Z,42.79
2022-08-14T20:24:50.004Z,42.83
2022-08-14T20:27:37.660Z,42.40
2022-08-14T20:30:28.801Z,42.80
2022-08-14T20:32:56.510Z,42.54
2022-08-14T20:35:26.758Z,42.62
2022-08-14T20:38:30.715Z,42.17
2022-08-14T20:40:56.257Z,42.01
2022-08-14T20:43:42.008Z,42.75
2022-08-14T20:46:24.095Z,42.58
2022-08-14T20:48:59.944Z,42.68
2022-08-14T20:51:59.370Z,43.61
2022-08-14T20:54:33.979Z,43.13
2022-08-14T20:57:10.748Z,43.08
2022-08-14T20:59:43.496Z,43.63
2022-08-14T21:02:30.459Z,43.40
2022-08-14T21:05:16.372Z,43.13
2022-08-14T21:07:44.565Z,42.96
2022-08-14T21:10:33.011Z,43.64
2022-08-14T21:14:18.689Z,43.72
2022-08-14T21:15:57.345Z,43.72
2022-08-14T21:18:47.387Z,43.47
2022-08-14T21:21:17.710Z,44.15
2022-08-14T21:23:55.324Z,43.86
2022-08-14T21:26:50.521Z,43.35
2022-08-14T21:29:11.282Z,43.29
2022-08-14T21:31:39.411Z,43.29
2022-08-14T21:34:31.588Z,43.82
2022-08-14T21:36:53.764Z,43.43
2022-08-14T21:39:21.515Z,43.28
2022-08-14T21:41:59.002Z,43.61
2022-08-14T21:44:42.637Z,44.02
2022-08-14T21:47:11.574Z,43.90
2022-08-14T21:49:40.162Z,44.00
2022-08-14T21:52:51.987Z,44.00
2022-08-14T21:55:09.243Z,44.80
2022-08-14T21:58:05.475Z,44.55
2022-08-14T22:00:34.679Z,45.33
2022-08-14T22:03:02.644Z,45.88
2022-08-14T22:05:29.417Z,46.03
2022-08-14T22:07:55.998Z,46.16
2022-08-14T22:10:22.762Z,46.35
2022-08-14T22:13:00.976Z,46.94
2022-08-14T22:15:28.220Z,46.92
2022-08-14T22:17:54.926Z,47.48
2022-08-14T22:20:22.113Z,47.54
2022-08-14T22:22:48.639Z,47.75
2022-08-14T22:25:22.109Z,47.26
2022-08-14T22:28:00.713Z,47.92
2022-08-14T22:30:26.764Z,47.62
2022-08-14T22:32:57.338Z,47.84
2022-08-14T22:35:25.010Z,48.48
2022-08-14T22:38:36.125Z,48.61
2022-08-14T22:41:01.807Z,48.90
2022-08-14T22:43:26.842Z,49.33
2022-08-14T22:45:55.496Z,49.72
2022-08-14T22:48:22.053Z,49.74
2022-08-14T22:50:53.329Z,49.48
2022-08-14T22:53:20.856Z,49.80
2022-08-14T22:55:47.750Z,49.77
2022-08-14T22:58:31.349Z,50.44
2022-08-14T23:01:00.295Z,50.37
2022-08-14T23:03:26.291Z,50.44
2022-08-14T23:05:54.532Z,50.36
2022-08-14T23:08:57.755Z,50.99
2022-08-14T23:11:09.533Z,51.17
2022-08-14T23:13:38.996Z,50.84
2022-08-14T23:16:06.107Z,50.75
2022-08-14T23:18:32.145Z,51.21
2022-08-14T23:20:58.012Z,51.44
2022-08-14T23:23:23.890Z,51.70
2022-08-14T23:25:59.299Z,51.02
2022-08-14T23:28:56.831Z,51.72
2022-08-14T23:31:34.894Z,51.67
2022-08-14T23:34:07.973Z,51.48
2022-08-14T23:36:37.976Z,51.92
2022-08-14T23:39:19.437Z,51.97
2022-08-14T23:41:52.610Z,51.68
2022-08-14T23:44:22.646Z,51.98
2022-08-14T23:46:52.668Z,51.73
2022-08-14T23:49:27.942Z,51.87
2022-08-14T23:52:56.013Z,51.67
2022-08-14T23:55:01.148Z,51.95
2022-08-14T23:57:28.689Z,51.70
2022-08-14T23:59:56.656Z,52.35
